sensor_id;sensor_type;location;lat;lon;timestamp;P1;durP1;ratioP1;P2;durP2;ratioP2
44774;SDS011;31340;51.402;0.016;2022-08-19T00:01:57;6.97;;;3.45;;
44774;SDS011;31340;51.402;0.016;2022-08-19T00:04:27;8.60;;;3.63;;
44774;SDS011;31340;51.402;0.016;2022-08-19T00:06:59;7.22;;;3.60;;
44774;SDS011;31340;51.402;0.016;2022-08-19T00:09:28;8.43;;;3.45;;
44774;SDS011;31340;51.402;0.016;2022-08-19T00:11:56;8.40;;;3.95;;
44774;SDS011;31340;51.402;0.016;2022-08-19T00:14:26;8.27;;;3.58;;
44774;SDS011;31340;51.402;0.016;2022-08-19T00:16:58;9.77;;;4.28;;
44774;SDS011;31340;51.402;0.016;2022-08-19T00:19:26;12.80;;;4.10;;
44774;SDS011;31340;51.402;0.016;2022-08-19T00:21:53;7.57;;;3.35;;
44774;SDS011;31340;51.402;0.016;2022-08-19T00:24:23;7.80;;;3.22;;
44774;SDS011;31340;51.402;0.016;2022-08-19T00:26:51;7.35;;;3.25;;
44774;SDS011;31340;51.402;0.016;2022-08-19T00:29:20;9.02;;;3.95;;
44774;SDS011;31340;51.402;0.016;2022-08-19T00:31:48;8.18;;;3.72;;
44774;SDS011;31340;51.402;0.016;2022-08-19T00:34:17;8.15;;;3.55;;
44774;SDS011;31340;51.402;0.016;2022-08-19T00:36:45;10.77;;;3.58;;
44774;SDS011;31340;51.402;0.016;2022-08-19T00:39:13;6.85;;;3.08;;
44774;SDS011;31340;51.402;0.016;2022-08-19T00:41:43;10.35;;;3.22;;
44774;SDS011;31340;51.402;0.016;2022-08-19T00:44:25;7.43;;;3.15;;
44774;SDS011;31340;51.402;0.016;2022-08-19T00:46:55;5.30;;;2.67;;
44774;SDS011;31340;51.402;0.016;2022-08-19T00:52:14;6.88;;;3.63;;
44774;SDS011;31340;51.402;0.016;2022-08-19T00:54:45;5.05;;;3.50;;
44774;SDS011;31340;51.402;0.016;2022-08-19T00:57:19;9.23;;;4.00;;
44774;SDS011;31340;51.402;0.016;2022-08-19T00:59:54;6.28;;;3.47;;
44774;SDS011;31340;51.402;0.016;2022-08-19T01:02:29;9.13;;;3.70;;
44774;SDS011;31340;51.402;0.016;2022-08-19T01:04:57;9.88;;;3.92;;
44774;SDS011;31340;51.402;0.016;2022-08-19T01:07:28;4.32;;;3.15;;
44774;SDS011;31340;51.402;0.016;2022-08-19T01:10:07;8.55;;;3.65;;
44774;SDS011;31340;51.402;0.016;2022-08-19T01:12:38;8.52;;;3.30;;
44774;SDS011;31340;51.402;0.016;2022-08-19T01:15:08;5.93;;;3.13;;
44774;SDS011;31340;51.402;0.016;2022-08-19T01:20:06;9.10;;;4.10;;
44774;SDS011;31340;51.402;0.016;2022-08-19T01:22:40;8.60;;;4.05;;
44774;SDS011;31340;51.402;0.016;2022-08-19T01:25:16;9.43;;;4.07;;
44774;SDS011;31340;51.402;0.016;2022-08-19T01:27:47;6.28;;;3.50;;
44774;SDS011;31340;51.402;0.016;2022-08-19T01:30:27;9.60;;;4.10;;
44774;SDS011;31340;51.402;0.016;2022-08-19T01:32:59;6.93;;;4.18;;
44774;SDS011;31340;51.402;0.016;2022-08-19T01:35:28;7.60;;;4.30;;
44774;SDS011;31340;51.402;0.016;2022-08-19T01:37:58;9.60;;;4.95;;
44774;SDS011;31340;51.402;0.016;2022-08-19T01:40:30;10.77;;;5.00;;
44774;SDS011;31340;51.402;0.016;2022-08-19T01:43:00;7.15;;;4.43;;
44774;SDS011;31340;51.402;0.016;2022-08-19T01:45:30;8.00;;;4.75;;
44774;SDS011;31340;51.402;0.016;2022-08-19T01:50:30;12.57;;;5.80;;
44774;SDS011;31340;51.402;0.016;2022-08-19T01:53:00;9.05;;;5.88;;
44774;SDS011;31340;51.402;0.016;2022-08-19T01:55:35;10.35;;;6.50;;
44774;SDS011;31340;51.402;0.016;2022-08-19T01:58:08;11.10;;;6.47;;
44774;SDS011;31340;51.402;0.016;2022-08-19T02:00:41;9.50;;;5.85;;
44774;SDS011;31340;51.402;0.016;2022-08-19T02:03:09;9.52;;;6.00;;
44774;SDS011;31340;51.402;0.016;2022-08-19T02:05:38;12.90;;;6.65;;
44774;SDS011;31340;51.402;0.016;2022-08-19T02:08:07;10.48;;;6.40;;
44774;SDS011;31340;51.402;0.016;2022-08-19T02:10:40;11.20;;;6.78;;
44774;SDS011;31340;51.402;0.016;2022-08-19T02:13:10;12.70;;;6.00;;
44774;SDS011;31340;51.402;0.016;2022-08-19T02:15:39;11.05;;;5.68;;
44774;SDS011;31340;51.402;0.016;2022-08-19T02:18:07;11.40;;;6.65;;
44774;SDS011;31340;51.402;0.016;2022-08-19T02:20:35;9.13;;;5.82;;
44774;SDS011;31340;51.402;0.016;2022-08-19T02:23:05;11.40;;;6.50;;
44774;SDS011;31340;51.402;0.016;2022-08-19T02:25:40;11.70;;;5.80;;
44774;SDS011;31340;51.402;0.016;2022-08-19T02:28:08;10.52;;;6.07;;
44774;SDS011;31340;51.402;0.016;2022-08-19T02:30:36;10.07;;;5.97;;
44774;SDS011;31340;51.402;0.016;2022-08-19T02:33:05;10.50;;;6.18;;
44774;SDS011;31340;51.402;0.016;2022-08-19T02:35:32;13.98;;;7.30;;
44774;SDS011;31340;51.402;0.016;2022-08-19T02:38:00;12.02;;;6.25;;
44774;SDS011;31340;51.402;0.016;2022-08-19T02:40:50;13.48;;;6.53;;
44774;SDS011;31340;51.402;0.016;2022-08-19T02:43:20;17.63;;;7.53;;
44774;SDS011;31340;51.402;0.016;2022-08-19T02:45:50;9.75;;;6.20;;
44774;SDS011;31340;51.402;0.016;2022-08-19T02:48:19;9.45;;;5.93;;
44774;SDS011;31340;51.402;0.016;2022-08-19T02:50:49;9.48;;;5.93;;
44774;SDS011;31340;51.402;0.016;2022-08-19T02:53:25;10.18;;;6.63;;
44774;SDS011;31340;51.402;0.016;2022-08-19T02:55:55;10.98;;;5.90;;
44774;SDS011;31340;51.402;0.016;2022-08-19T02:58:22;9.50;;;5.82;;
44774;SDS011;31340;51.402;0.016;2022-08-19T03:00:52;10.55;;;6.25;;
44774;SDS011;31340;51.402;0.016;2022-08-19T03:03:22;11.40;;;5.72;;
44774;SDS011;31340;51.402;0.016;2022-08-19T03:05:50;12.82;;;6.05;;
44774;SDS011;31340;51.402;0.016;2022-08-19T03:08:23;12.00;;;5.85;;
44774;SDS011;31340;51.402;0.016;2022-08-19T03:10:52;8.43;;;5.53;;
44774;SDS011;31340;51.402;0.016;2022-08-19T03:13:21;12.30;;;5.72;;
44774;SDS011;31340;51.402;0.016;2022-08-19T03:15:48;7.65;;;5.18;;
44774;SDS011;31340;51.402;0.016;2022-08-19T03:18:16;13.05;;;5.43;;
44774;SDS011;31340;51.402;0.016;2022-08-19T03:20:46;7.13;;;5.25;;
44774;SDS011;31340;51.402;0.016;2022-08-19T03:23:16;13.20;;;5.35;;
44774;SDS011;31340;51.402;0.016;2022-08-19T03:25:46;10.88;;;6.18;;
44774;SDS011;31340;51.402;0.016;2022-08-19T03:28:35;14.13;;;6.88;;
44774;SDS011;31340;51.402;0.016;2022-08-19T03:31:06;10.07;;;6.07;;
44774;SDS011;31340;51.402;0.016;2022-08-19T03:33:55;12.75;;;6.80;;
44774;SDS011;31340;51.402;0.016;2022-08-19T03:36:24;11.18;;;7.18;;
44774;SDS011;31340;51.402;0.016;2022-08-19T03:38:57;12.82;;;7.55;;
44774;SDS011;31340;51.402;0.016;2022-08-19T03:41:28;11.07;;;7.40;;
44774;SDS011;31340;51.402;0.016;2022-08-19T03:44:12;11.18;;;7.13;;
44774;SDS011;31340;51.402;0.016;2022-08-19T03:46:45;14.93;;;7.90;;
44774;SDS011;31340;51.402;0.016;2022-08-19T03:49:14;10.73;;;7.23;;
44774;SDS011;31340;51.402;0.016;2022-08-19T03:51:45;12.83;;;7.50;;
44774;SDS011;31340;51.402;0.016;2022-08-19T03:54:14;12.57;;;7.25;;
44774;SDS011;31340;51.402;0.016;2022-08-19T03:56:45;11.20;;;7.40;;
44774;SDS011;31340;51.402;0.016;2022-08-19T03:59:19;14.75;;;7.03;;
44774;SDS011;31340;51.402;0.016;2022-08-19T04:01:55;14.20;;;8.32;;
44774;SDS011;31340;51.402;0.016;2022-08-19T04:04:24;11.25;;;6.57;;
44774;SDS011;31340;51.402;0.016;2022-08-19T04:06:55;12.70;;;7.63;;
44774;SDS011;31340;51.402;0.016;2022-08-19T04:09:23;13.70;;;7.43;;
44774;SDS011;31340;51.402;0.016;2022-08-19T04:11:52;9.98;;;6.88;;
44774;SDS011;31340;51.402;0.016;2022-08-19T04:14:24;10.32;;;6.90;;
44774;SDS011;31340;51.402;0.016;2022-08-19T04:16:57;11.15;;;6.95;;
44774;SDS011;31340;51.402;0.016;2022-08-19T04:19:26;16.42;;;7.82;;
44774;SDS011;31340;51.402;0.016;2022-08-19T04:21:56;10.73;;;7.20;;
44774;SDS011;31340;51.402;0.016;2022-08-19T04:24:25;11.98;;;7.35;;
44774;SDS011;31340;51.402;0.016;2022-08-19T04:26:53;11.65;;;7.70;;
44774;SDS011;31340;51.402;0.016;2022-08-19T04:29:22;9.57;;;7.50;;
44774;SDS011;31340;51.402;0.016;2022-08-19T04:31:52;9.85;;;6.10;;
44774;SDS011;31340;51.402;0.016;2022-08-19T04:34:23;9.70;;;8.13;;
44774;SDS011;31340;51.402;0.016;2022-08-19T04:36:53;11.13;;;8.25;;
44774;SDS011;31340;51.402;0.016;2022-08-19T04:39:23;11.38;;;7.53;;
44774;SDS011;31340;51.402;0.016;2022-08-19T04:42:12;12.57;;;8.52;;
44774;SDS011;31340;51.402;0.016;2022-08-19T04:44:58;10.55;;;7.32;;
44774;SDS011;31340;51.402;0.016;2022-08-19T04:47:27;14.63;;;8.13;;
44774;SDS011;31340;51.402;0.016;2022-08-19T04:50:14;12.48;;;8.05;;
44774;SDS011;31340;51.402;0.016;2022-08-19T04:52:45;12.25;;;8.85;;
44774;SDS011;31340;51.402;0.016;2022-08-19T04:55:12;15.80;;;7.68;;
44774;SDS011;31340;51.402;0.016;2022-08-19T04:57:41;11.95;;;9.05;;
44774;SDS011;31340;51.402;0.016;2022-08-19T05:00:09;12.82;;;8.35;;
44774;SDS011;31340;51.402;0.016;2022-08-19T05:02:38;12.73;;;8.13;;
44774;SDS011;31340;51.402;0.016;2022-08-19T05:05:06;12.18;;;8.20;;
44774;SDS011;31340;51.402;0.016;2022-08-19T05:07:34;13.75;;;8.50;;
44774;SDS011;31340;51.402;0.016;2022-08-19T05:10:03;10.02;;;7.43;;
44774;SDS011;31340;51.402;0.016;2022-08-19T05:12:32;11.18;;;7.10;;
44774;SDS011;31340;51.402;0.016;2022-08-19T05:15:01;10.07;;;6.88;;
44774;SDS011;31340;51.402;0.016;2022-08-19T05:17:30;9.43;;;6.73;;
44774;SDS011;31340;51.402;0.016;2022-08-19T05:20:05;10.07;;;7.20;;
44774;SDS011;31340;51.402;0.016;2022-08-19T05:22:52;12.02;;;7.18;;
44774;SDS011;31340;51.402;0.016;2022-08-19T05:25:20;9.80;;;6.28;;
44774;SDS011;31340;51.402;0.016;2022-08-19T05:27:48;10.07;;;6.03;;
44774;SDS011;31340;51.402;0.016;2022-08-19T05:30:16;9.45;;;5.72;;
44774;SDS011;31340;51.402;0.016;2022-08-19T05:32:59;8.77;;;5.78;;
44774;SDS011;31340;51.402;0.016;2022-08-19T05:35:27;8.27;;;5.00;;
44774;SDS011;31340;51.402;0.016;2022-08-19T05:38:00;8.55;;;5.10;;
44774;SDS011;31340;51.402;0.016;2022-08-19T05:40:28;9.00;;;4.72;;
44774;SDS011;31340;51.402;0.016;2022-08-19T05:42:55;7.07;;;4.90;;
44774;SDS011;31340;51.402;0.016;2022-08-19T05:45:24;6.45;;;4.40;;
44774;SDS011;31340;51.402;0.016;2022-08-19T05:47:52;4.93;;;3.67;;
44774;SDS011;31340;51.402;0.016;2022-08-19T05:50:20;7.05;;;4.13;;
44774;SDS011;31340;51.402;0.016;2022-08-19T05:52:48;4.07;;;3.40;;
44774;SDS011;31340;51.402;0.016;2022-08-19T05:55:16;4.57;;;3.28;;
44774;SDS011;31340;51.402;0.016;2022-08-19T05:57:47;7.28;;;2.85;;
44774;SDS011;31340;51.402;0.016;2022-08-19T06:00:15;4.03;;;2.72;;
44774;SDS011;31340;51.402;0.016;2022-08-19T06:02:49;3.88;;;2.20;;
44774;SDS011;31340;51.402;0.016;2022-08-19T06:05:18;3.85;;;1.90;;
44774;SDS011;31340;51.402;0.016;2022-08-19T06:07:46;5.35;;;2.15;;
44774;SDS011;31340;51.402;0.016;2022-08-19T06:10:14;2.97;;;1.52;;
44774;SDS011;31340;51.402;0.016;2022-08-19T06:12:42;1.42;;;1.23;;
44774;SDS011;31340;51.402;0.016;2022-08-19T06:15:11;4.38;;;1.58;;
44774;SDS011;31340;51.402;0.016;2022-08-19T06:20:09;2.80;;;1.17;;
44774;SDS011;31340;51.402;0.016;2022-08-19T06:22:41;6.07;;;1.38;;
44774;SDS011;31340;51.402;0.016;2022-08-19T06:25:10;2.28;;;1.00;;
44774;SDS011;31340;51.402;0.016;2022-08-19T06:27:39;1.63;;;0.90;;
44774;SDS011;31340;51.402;0.016;2022-08-19T06:30:27;1.38;;;0.70;;
44774;SDS011;31340;51.402;0.016;2022-08-19T06:32:55;1.20;;;0.65;;
44774;SDS011;31340;51.402;0.016;2022-08-19T06:35:22;1.35;;;0.80;;
44774;SDS011;31340;51.402;0.016;2022-08-19T06:37:50;2.03;;;0.90;;
44774;SDS011;31340;51.402;0.016;2022-08-19T06:40:20;1.08;;;0.63;;
44774;SDS011;31340;51.402;0.016;2022-08-19T06:42:48;3.05;;;0.80;;
44774;SDS011;31340;51.402;0.016;2022-08-19T06:45:24;2.65;;;0.70;;
44774;SDS011;31340;51.402;0.016;2022-08-19T06:48:02;0.60;;;0.55;;
44774;SDS011;31340;51.402;0.016;2022-08-19T06:50:29;0.88;;;0.65;;
44774;SDS011;31340;51.402;0.016;2022-08-19T06:52:57;1.80;;;0.80;;
44774;SDS011;31340;51.402;0.016;2022-08-19T06:55:30;1.83;;;0.70;;
44774;SDS011;31340;51.402;0.016;2022-08-19T06:58:01;1.85;;;0.80;;
44774;SDS011;31340;51.402;0.016;2022-08-19T07:00:30;2.35;;;0.70;;
44774;SDS011;31340;51.402;0.016;2022-08-19T07:02:58;1.40;;;0.50;;
44774;SDS011;31340;51.402;0.016;2022-08-19T07:05:37;0.73;;;0.60;;
44774;SDS011;31340;51.402;0.016;2022-08-19T07:08:11;1.77;;;0.52;;
44774;SDS011;31340;51.402;0.016;2022-08-19T07:10:42;1.25;;;0.60;;
44774;SDS011;31340;51.402;0.016;2022-08-19T07:13:11;2.25;;;1.00;;
44774;SDS011;31340;51.402;0.016;2022-08-19T07:15:39;0.93;;;0.55;;
44774;SDS011;31340;51.402;0.016;2022-08-19T07:18:06;1.33;;;0.60;;
44774;SDS011;31340;51.402;0.016;2022-08-19T07:20:38;1.73;;;0.70;;
44774;SDS011;31340;51.402;0.016;2022-08-19T07:23:08;0.60;;;0.50;;
44774;SDS011;31340;51.402;0.016;2022-08-19T07:25:44;2.08;;;0.80;;
44774;SDS011;31340;51.402;0.016;2022-08-19T07:28:19;1.88;;;0.68;;
44774;SDS011;31340;51.402;0.016;2022-08-19T07:30:51;1.52;;;0.60;;
44774;SDS011;31340;51.402;0.016;2022-08-19T07:33:19;4.95;;;0.80;;
44774;SDS011;31340;51.402;0.016;2022-08-19T07:35:47;1.30;;;0.90;;
44774;SDS011;31340;51.402;0.016;2022-08-19T07:38:16;3.13;;;0.80;;
44774;SDS011;31340;51.402;0.016;2022-08-19T07:40:44;1.42;;;0.90;;
44774;SDS011;31340;51.402;0.016;2022-08-19T07:43:12;2.92;;;0.70;;
44774;SDS011;31340;51.402;0.016;2022-08-19T07:45:49;2.50;;;0.90;;
44774;SDS011;31340;51.402;0.016;2022-08-19T07:48:16;3.38;;;0.90;;
44774;SDS011;31340;51.402;0.016;2022-08-19T07:50:44;1.63;;;0.80;;
44774;SDS011;31340;51.402;0.016;2022-08-19T07:53:12;1.77;;;1.05;;
44774;SDS011;31340;51.402;0.016;2022-08-19T07:55:40;3.80;;;0.95;;
44774;SDS011;31340;51.402;0.016;2022-08-19T07:58:11;1.53;;;0.90;;
44774;SDS011;31340;51.402;0.016;2022-08-19T08:00:41;3.22;;;0.63;;
44774;SDS011;31340;51.402;0.016;2022-08-19T08:03:09;0.90;;;0.68;;
44774;SDS011;31340;51.402;0.016;2022-08-19T08:05:37;1.83;;;0.85;;
44774;SDS011;31340;51.402;0.016;2022-08-19T08:08:24;3.63;;;1.02;;
44774;SDS011;31340;51.402;0.016;2022-08-19T08:11:18;2.88;;;0.98;;
44774;SDS011;31340;51.402;0.016;2022-08-19T08:13:47;1.45;;;0.70;;
44774;SDS011;31340;51.402;0.016;2022-08-19T08:16:32;3.05;;;0.70;;
44774;SDS011;31340;51.402;0.016;2022-08-19T08:19:13;0.85;;;0.65;;
44774;SDS011;31340;51.402;0.016;2022-08-19T08:21:52;1.73;;;0.68;;
44774;SDS011;31340;51.402;0.016;2022-08-19T08:24:24;4.68;;;0.80;;
44774;SDS011;31340;51.402;0.016;2022-08-19T08:26:54;2.15;;;0.70;;
44774;SDS011;31340;51.402;0.016;2022-08-19T08:29:24;2.15;;;0.88;;
44774;SDS011;31340;51.402;0.016;2022-08-19T08:32:00;2.35;;;1.23;;
44774;SDS011;31340;51.402;0.016;2022-08-19T08:34:28;4.57;;;0.90;;
44774;SDS011;31340;51.402;0.016;2022-08-19T08:36:56;2.10;;;0.68;;
44774;SDS011;31340;51.402;0.016;2022-08-19T08:39:24;2.90;;;0.93;;
44774;SDS011;31340;51.402;0.016;2022-08-19T08:47:16;1.48;;;0.55;;
44774;SDS011;31340;51.402;0.016;2022-08-19T08:50:00;2.40;;;1.02;;
44774;SDS011;31340;51.402;0.016;2022-08-19T08:52:39;1.67;;;0.70;;
44774;SDS011;31340;51.402;0.016;2022-08-19T08:55:14;1.83;;;0.77;;
44774;SDS011;31340;51.402;0.016;2022-08-19T09:00:26;2.25;;;1.15;;
44774;SDS011;31340;51.402;0.016;2022-08-19T09:02:57;3.17;;;1.02;;
44774;SDS011;31340;51.402;0.016;2022-08-19T09:05:30;2.17;;;0.75;;
44774;SDS011;31340;51.402;0.016;2022-08-19T09:12:01;3.40;;;0.95;;
44774;SDS011;31340;51.402;0.016;2022-08-19T09:17:21;3.28;;;0.95;;
44774;SDS011;31340;51.402;0.016;2022-08-19T09:19:58;4.40;;;1.15;;
44774;SDS011;31340;51.402;0.016;2022-08-19T09:25:08;3.72;;;0.82;;
44774;SDS011;31340;51.402;0.016;2022-08-19T09:27:38;5.70;;;1.17;;
44774;SDS011;31340;51.402;0.016;2022-08-19T09:30:21;5.57;;;1.08;;
44774;SDS011;31340;51.402;0.016;2022-08-19T09:32:57;3.42;;;1.00;;
44774;SDS011;31340;51.402;0.016;2022-08-19T09:35:26;4.20;;;0.95;;
44774;SDS011;31340;51.402;0.016;2022-08-19T09:37:56;4.90;;;1.25;;
44774;SDS011;31340;51.402;0.016;2022-08-19T09:40:26;3.05;;;1.10;;
44774;SDS011;31340;51.402;0.016;2022-08-19T09:42:56;2.50;;;1.00;;
44774;SDS011;31340;51.402;0.016;2022-08-19T09:45:37;3.00;;;0.90;;
44774;SDS011;31340;51.402;0.016;2022-08-19T09:48:05;3.30;;;0.90;;
44774;SDS011;31340;51.402;0.016;2022-08-19T09:50:32;2.38;;;0.93;;
44774;SDS011;31340;51.402;0.016;2022-08-19T09:53:01;1.40;;;0.80;;
44774;SDS011;31340;51.402;0.016;2022-08-19T09:58:00;6.65;;;1.30;;
44774;SDS011;31340;51.402;0.016;2022-08-19T10:00:28;5.65;;;1.10;;
44774;SDS011;31340;51.402;0.016;2022-08-19T10:02:57;2.63;;;1.02;;
44774;SDS011;31340;51.402;0.016;2022-08-19T10:05:27;2.67;;;1.10;;
44774;SDS011;31340;51.402;0.016;2022-08-19T10:08:18;5.18;;;1.10;;
44774;SDS011;31340;51.402;0.016;2022-08-19T10:10:54;2.13;;;1.00;;
44774;SDS011;31340;51.402;0.016;2022-08-19T10:13:27;4.60;;;1.38;;
44774;SDS011;31340;51.402;0.016;2022-08-19T10:15:56;3.30;;;1.00;;
44774;SDS011;31340;51.402;0.016;2022-08-19T10:18:31;6.93;;;1.33;;
44774;SDS011;31340;51.402;0.016;2022-08-19T10:21:08;4.70;;;1.00;;
44774;SDS011;31340;51.402;0.016;2022-08-19T10:23:38;4.22;;;1.10;;
44774;SDS011;31340;51.402;0.016;2022-08-19T10:26:12;3.47;;;1.23;;
44774;SDS011;31340;51.402;0.016;2022-08-19T10:28:44;1.42;;;0.90;;
44774;SDS011;31340;51.402;0.016;2022-08-19T10:31:17;2.65;;;0.98;;
44774;SDS011;31340;51.402;0.016;2022-08-19T10:34:07;3.22;;;1.20;;
44774;SDS011;31340;51.402;0.016;2022-08-19T10:36:53;3.97;;;1.20;;
44774;SDS011;31340;51.402;0.016;2022-08-19T10:39:26;2.10;;;0.93;;
44774;SDS011;31340;51.402;0.016;2022-08-19T10:42:10;7.93;;;1.30;;
44774;SDS011;31340;51.402;0.016;2022-08-19T10:44:40;4.32;;;1.50;;
44774;SDS011;31340;51.402;0.016;2022-08-19T10:47:08;5.68;;;1.33;;
44774;SDS011;31340;51.402;0.016;2022-08-19T10:49:52;4.05;;;1.30;;
44774;SDS011;31340;51.402;0.016;2022-08-19T10:52:40;5.18;;;1.40;;
44774;SDS011;31340;51.402;0.016;2022-08-19T10:55:21;6.03;;;1.70;;
44774;SDS011;31340;51.402;0.016;2022-08-19T10:58:10;7.32;;;1.67;;
44774;SDS011;31340;51.402;0.016;2022-08-19T11:00:42;7.50;;;1.55;;
44774;SDS011;31340;51.402;0.016;2022-08-19T11:03:10;3.47;;;1.58;;
44774;SDS011;31340;51.402;0.016;2022-08-19T11:05:38;7.63;;;1.58;;
44774;SDS011;31340;51.402;0.016;2022-08-19T11:08:07;10.20;;;1.88;;
44774;SDS011;31340;51.402;0.016;2022-08-19T11:10:53;6.20;;;1.65;;
44774;SDS011;31340;51.402;0.016;2022-08-19T11:13:33;4.43;;;1.42;;
44774;SDS011;31340;51.402;0.016;2022-08-19T11:16:04;7.05;;;1.48;;
44774;SDS011;31340;51.402;0.016;2022-08-19T11:18:37;7.03;;;1.58;;
44774;SDS011;31340;51.402;0.016;2022-08-19T11:21:08;6.07;;;2.03;;
44774;SDS011;31340;51.402;0.016;2022-08-19T11:23:39;6.25;;;2.00;;
44774;SDS011;31340;51.402;0.016;2022-08-19T11:26:07;7.18;;;1.48;;
44774;SDS011;31340;51.402;0.016;2022-08-19T11:28:35;2.33;;;1.00;;
44774;SDS011;31340;51.402;0.016;2022-08-19T11:31:03;2.67;;;1.08;;
44774;SDS011;31340;51.402;0.016;2022-08-19T11:33:30;5.10;;;1.30;;
44774;SDS011;31340;51.402;0.016;2022-08-19T11:35:59;5.70;;;1.25;;
44774;SDS011;31340;51.402;0.016;2022-08-19T11:38:27;3.80;;;1.10;;
44774;SDS011;31340;51.402;0.016;2022-08-19T11:40:57;5.18;;;1.38;;
44774;SDS011;31340;51.402;0.016;2022-08-19T11:43:26;5.57;;;1.42;;
44774;SDS011;31340;51.402;0.016;2022-08-19T11:45:55;5.75;;;1.30;;
44774;SDS011;31340;51.402;0.016;2022-08-19T11:48:23;6.30;;;1.48;;
44774;SDS011;31340;51.402;0.016;2022-08-19T11:50:52;7.03;;;1.48;;
44774;SDS011;31340;51.402;0.016;2022-08-19T11:53:23;6.13;;;1.50;;
44774;SDS011;31340;51.402;0.016;2022-08-19T11:55:53;5.70;;;1.58;;
44774;SDS011;31340;51.402;0.016;2022-08-19T11:58:23;9.73;;;1.80;;
44774;SDS011;31340;51.402;0.016;2022-08-19T12:00:56;6.85;;;1.60;;
44774;SDS011;31340;51.402;0.016;2022-08-19T12:03:24;10.57;;;1.65;;
44774;SDS011;31340;51.402;0.016;2022-08-19T12:05:52;5.47;;;1.90;;
44774;SDS011;31340;51.402;0.016;2022-08-19T12:08:20;7.22;;;1.70;;
44774;SDS011;31340;51.402;0.016;2022-08-19T12:10:48;9.60;;;2.00;;
44774;SDS011;31340;51.402;0.016;2022-08-19T12:13:15;7.78;;;2.55;;
44774;SDS011;31340;51.402;0.016;2022-08-19T12:15:46;11.17;;;2.70;;
44774;SDS011;31340;51.402;0.016;2022-08-19T12:18:14;9.15;;;2.78;;
44774;SDS011;31340;51.402;0.016;2022-08-19T12:20:42;10.30;;;2.60;;
44774;SDS011;31340;51.402;0.016;2022-08-19T12:23:12;6.38;;;2.65;;
44774;SDS011;31340;51.402;0.016;2022-08-19T12:25:45;7.72;;;2.75;;
44774;SDS011;31340;51.402;0.016;2022-08-19T12:28:19;6.78;;;2.13;;
44774;SDS011;31340;51.402;0.016;2022-08-19T12:30:48;11.43;;;2.60;;
44774;SDS011;31340;51.402;0.016;2022-08-19T12:33:18;8.47;;;2.50;;
44774;SDS011;31340;51.402;0.016;2022-08-19T12:35:50;9.63;;;2.75;;
44774;SDS011;31340;51.402;0.016;2022-08-19T12:38:19;16.38;;;2.75;;
44774;SDS011;31340;51.402;0.016;2022-08-19T12:40:47;11.70;;;3.33;;
44774;SDS011;31340;51.402;0.016;2022-08-19T12:43:15;11.13;;;3.15;;
44774;SDS011;31340;51.402;0.016;2022-08-19T12:45:43;13.13;;;2.97;;
44774;SDS011;31340;51.402;0.016;2022-08-19T12:48:13;8.00;;;2.72;;
44774;SDS011;31340;51.402;0.016;2022-08-19T12:51:05;6.70;;;2.15;;
44774;SDS011;31340;51.402;0.016;2022-08-19T12:53:35;9.38;;;2.38;;
44774;SDS011;31340;51.402;0.016;2022-08-19T12:56:06;5.10;;;2.00;;
44774;SDS011;31340;51.402;0.016;2022-08-19T12:58:38;9.60;;;2.17;;
44774;SDS011;31340;51.402;0.016;2022-08-19T13:01:16;6.47;;;2.17;;
44774;SDS011;31340;51.402;0.016;2022-08-19T13:03:49;9.20;;;2.60;;
44774;SDS011;31340;51.402;0.016;2022-08-19T13:06:20;7.10;;;2.45;;
44774;SDS011;31340;51.402;0.016;2022-08-19T13:08:48;12.18;;;2.80;;
44774;SDS011;31340;51.402;0.016;2022-08-19T13:11:17;6.93;;;2.15;;
44774;SDS011;31340;51.402;0.016;2022-08-19T13:13:47;10.57;;;1.95;;
44774;SDS011;31340;51.402;0.016;2022-08-19T13:16:18;6.32;;;2.00;;
44774;SDS011;31340;51.402;0.016;2022-08-19T13:18:48;14.25;;;2.25;;
44774;SDS011;31340;51.402;0.016;2022-08-19T13:21:19;9.23;;;2.28;;
44774;SDS011;31340;51.402;0.016;2022-08-19T13:23:49;8.40;;;2.38;;
44774;SDS011;31340;51.402;0.016;2022-08-19T13:26:17;6.00;;;1.52;;
44774;SDS011;31340;51.402;0.016;2022-08-19T13:28:45;8.80;;;2.13;;
44774;SDS011;31340;51.402;0.016;2022-08-19T13:31:32;6.38;;;2.20;;
44774;SDS011;31340;51.402;0.016;2022-08-19T13:34:27;13.38;;;2.60;;
44774;SDS011;31340;51.402;0.016;2022-08-19T13:37:00;6.80;;;1.80;;
44774;SDS011;31340;51.402;0.016;2022-08-19T13:39:31;9.63;;;2.22;;
44774;SDS011;31340;51.402;0.016;2022-08-19T13:41:59;10.07;;;2.60;;
44774;SDS011;31340;51.402;0.016;2022-08-19T13:44:28;7.68;;;2.30;;
44774;SDS011;31340;51.402;0.016;2022-08-19T13:47:02;8.10;;;2.42;;
44774;SDS011;31340;51.402;0.016;2022-08-19T13:49:34;6.90;;;2.22;;
44774;SDS011;31340;51.402;0.016;2022-08-19T13:52:03;9.13;;;2.25;;
44774;SDS011;31340;51.402;0.016;2022-08-19T13:54:32;7.78;;;1.98;;
44774;SDS011;31340;51.402;0.016;2022-08-19T13:57:00;10.85;;;2.45;;
44774;SDS011;31340;51.402;0.016;2022-08-19T13:59:28;7.95;;;2.08;;
44774;SDS011;31340;51.402;0.016;2022-08-19T14:02:00;9.63;;;2.55;;
44774;SDS011;31340;51.402;0.016;2022-08-19T14:04:28;9.45;;;2.60;;
44774;SDS011;31340;51.402;0.016;2022-08-19T14:06:55;5.85;;;2.10;;
44774;SDS011;31340;51.402;0.016;2022-08-19T14:09:23;7.22;;;2.40;;
44774;SDS011;31340;51.402;0.016;2022-08-19T14:11:51;9.00;;;2.30;;
44774;SDS011;31340;51.402;0.016;2022-08-19T14:14:18;6.43;;;2.00;;
44774;SDS011;31340;51.402;0.016;2022-08-19T14:16:46;8.65;;;2.85;;
44774;SDS011;31340;51.402;0.016;2022-08-19T14:19:15;8.52;;;2.25;;
44774;SDS011;31340;51.402;0.016;2022-08-19T14:21:43;12.02;;;2.30;;
44774;SDS011;31340;51.402;0.016;2022-08-19T14:24:11;10.50;;;2.53;;
44774;SDS011;31340;51.402;0.016;2022-08-19T14:26:39;9.57;;;2.63;;
44774;SDS011;31340;51.402;0.016;2022-08-19T14:29:06;7.93;;;2.53;;
44774;SDS011;31340;51.402;0.016;2022-08-19T14:31:34;9.48;;;2.35;;
44774;SDS011;31340;51.402;0.016;2022-08-19T14:34:02;10.77;;;2.60;;
44774;SDS011;31340;51.402;0.016;2022-08-19T14:36:29;11.38;;;2.55;;
44774;SDS011;31340;51.402;0.016;2022-08-19T14:39:02;7.65;;;2.63;;
44774;SDS011;31340;51.402;0.016;2022-08-19T14:41:31;8.38;;;2.33;;
44774;SDS011;31340;51.402;0.016;2022-08-19T14:44:00;7.60;;;2.25;;
44774;SDS011;31340;51.402;0.016;2022-08-19T14:46:28;9.40;;;2.78;;
44774;SDS011;31340;51.402;0.016;2022-08-19T14:48:56;7.13;;;1.98;;
44774;SDS011;31340;51.402;0.016;2022-08-19T14:51:26;8.30;;;2.20;;
44774;SDS011;31340;51.402;0.016;2022-08-19T14:53:54;9.23;;;2.50;;
44774;SDS011;31340;51.402;0.016;2022-08-19T14:56:24;4.40;;;1.85;;
44774;SDS011;31340;51.402;0.016;2022-08-19T14:58:53;9.93;;;2.45;;
44774;SDS011;31340;51.402;0.016;2022-08-19T15:01:22;5.15;;;2.35;;
44774;SDS011;31340;51.402;0.016;2022-08-19T15:03:50;9.40;;;2.22;;
44774;SDS011;31340;51.402;0.016;2022-08-19T15:06:21;6.20;;;2.30;;
44774;SDS011;31340;51.402;0.016;2022-08-19T15:08:50;6.93;;;2.72;;
44774;SDS011;31340;51.402;0.016;2022-08-19T15:11:19;10.48;;;2.67;;
44774;SDS011;31340;51.402;0.016;2022-08-19T15:13:49;9.88;;;2.65;;
44774;SDS011;31340;51.402;0.016;2022-08-19T15:16:17;7.93;;;1.98;;
44774;SDS011;31340;51.402;0.016;2022-08-19T15:18:46;6.68;;;2.10;;
44774;SDS011;31340;51.402;0.016;2022-08-19T15:21:18;4.78;;;1.90;;
44774;SDS011;31340;51.402;0.016;2022-08-19T15:23:54;9.38;;;2.53;;
44774;SDS011;31340;51.402;0.016;2022-08-19T15:26:23;6.32;;;2.08;;
44774;SDS011;31340;51.402;0.016;2022-08-19T15:28:54;12.63;;;2.60;;
44774;SDS011;31340;51.402;0.016;2022-08-19T15:31:22;7.90;;;2.63;;
44774;SDS011;31340;51.402;0.016;2022-08-19T15:33:57;5.93;;;2.53;;
44774;SDS011;31340;51.402;0.016;2022-08-19T15:36:25;11.90;;;2.55;;
44774;SDS011;31340;51.402;0.016;2022-08-19T15:38:54;7.38;;;2.10;;